Huvudsida
METAR-TAF:

METAR-TAF

Flygplatser :

Barcelona, Venezuela

latitud: 10-07N, longitud: 064-41W, höjd: 7 m

Aktuellt väderrapport

Denna rapport gjordes för 4 timmar och 2 minuter sedan, klockan 21:00 UTC
Temperatur 32°C
Fuktighet 63%
Tryck 1007 hPa
Sikt 10 km eller mer
Brutna moln på en höjd av 1300 ft

METAR: SVBC 182100Z ////KT 9999 BKN013 32/24 Q1007

Tid: 21:02 (01:02 UTC)

Väderprognos

Denna rapport gjordes för 3 timmar och 2 minuter sedan, klockan 22:00 UTC
Prognos gäller från 19 kl. 00 UTC till 20 kl. 00 UTC
Vind 6 kt från ost
Sikt 10 km eller mer
Spridda moln på en höjd av 1600 ft
Blir
från 19 kl. 01 UTC till 19 kl. 05 UTC
Vind 3 kt från ost/nordost
Sikt: 8000 m
Brutna moln på en höjd av 1600 ft

TAF: SVBC 182200Z 1900/2000 09006KT 9999 SCT016 TX33/18Z TN24/09Z BECMG 1901/1905 07003KT 8000 REDZ BKN016

Aktuella väderrapporter och prognoser från 4000 flygplatser (METAR- och TAF-rapporter).

De tillgängliga stationerna syns som gula och röda prickar på kartan.

För musen över prickarna för att se namnen på stationerna.

Klicka sedan för att få väderrapporter och prognoser.

För att ändra kartan: Klicka på de gröna knapparna med ett svart kors på för att zooma in; den gröna knappen med ett streck på för att zooma ut; eller på de gröna pilarna för angränsande kartor.


METAR-TAF: